Time;durP1;ratioP1;P1;durP2;ratioP2;P2;SDS_P1;SDS_P2;PMS_P1;PMS_P2;Temp;Humidity;BMP_temperature;BMP_pressure;BME280_temperature;BME280_humidity;BME280_pressure;Samples;Min_cycle;Max_cycle;Signal;HPM_P1;HPM_P2
2022/01/21 00:01:00;;;;;;;11.55;1.27;;;-2.40;62.30;;;;;;4113076;28;20027;-63
2022/01/21 00:03:01;;;;;;;14.45;0.98;;;-2.50;62.20;;;;;;4119382;28;20023;-63
2022/01/21 00:05:02;;;;;;;7.55;1.35;;;-2.50;62.30;;;;;;4117497;28;20030;-63
2022/01/21 00:07:03;;;;;;;5.53;0.95;;;-2.50;62.50;;;;;;4121529;28;20094;-63
2022/01/21 00:09:03;;;;;;;9.18;1.50;;;-2.50;62.60;;;;;;4119363;28;20037;-63
2022/01/21 00:11:04;;;;;;;7.63;1.23;;;-2.60;62.70;;;;;;4124006;28;20517;-63
2022/01/21 00:13:14;;;;;;;16.45;1.65;;;-2.60;62.80;;;;;;4127821;28;20085;-63
2022/01/21 00:15:15;;;;;;;21.95;2.72;;;-2.60;62.90;;;;;;4123442;28;20035;-63
2022/01/21 00:17:19;;;;;;;8.30;1.25;;;-2.60;63.10;;;;;;4121305;28;20114;-63
2022/01/21 00:19:21;;;;;;;16.02;1.75;;;-2.60;63.10;;;;;;4116990;28;20689;-63
2022/01/21 00:30:39;;;;;;;8.45;1.45;;;-2.70;63.10;;;;;;4116091;28;20028;-63
2022/01/21 00:32:41;;;;;;;9.02;1.38;;;-2.80;62.90;;;;;;4124301;28;20543;-63
2022/01/21 00:34:41;;;;;;;5.47;1.20;;;-2.80;62.80;;;;;;4121474;28;20034;-63
2022/01/21 00:36:42;;;;;;;6.60;1.17;;;-2.80;62.90;;;;;;4121212;28;20041;-63
2022/01/21 00:38:43;;;;;;;8.93;1.33;;;-2.80;63.00;;;;;;4118714;28;20027;-63
2022/01/21 00:40:45;;;;;;;10.55;1.48;;;-2.80;63.10;;;;;;4123072;28;20034;-63
2022/01/21 00:44:46;;;;;;;9.18;1.52;;;-2.90;63.20;;;;;;4123454;28;20398;-63
2022/01/21 00:46:48;;;;;;;15.68;1.58;;;-2.90;63.50;;;;;;4122358;28;20076;-63
2022/01/21 00:48:49;;;;;;;13.02;1.35;;;-2.90;63.90;;;;;;4120057;28;20125;-64
2022/01/21 00:50:49;;;;;;;16.48;1.58;;;-3.00;64.00;;;;;;4118766;28;20031;-64
2022/01/21 00:52:50;;;;;;;27.55;2.13;;;-3.00;64.20;;;;;;4124574;28;20457;-63
2022/01/21 00:54:51;;;;;;;13.98;2.47;;;-3.00;64.40;;;;;;4123383;28;20030;-64
2022/01/21 00:56:51;;;;;;;18.67;1.85;;;-3.00;64.70;;;;;;4123331;28;20026;-63
2022/01/21 00:58:52;;;;;;;10.07;1.55;;;-3.00;64.90;;;;;;4121672;28;21053;-64
2022/01/21 01:00:52;;;;;;;13.70;1.98;;;-3.00;65.00;;;;;;4121192;28;20037;-63
2022/01/21 01:02:53;;;;;;;11.02;1.60;;;-3.00;65.00;;;;;;4109058;28;20087;-64
2022/01/21 01:04:53;;;;;;;8.38;1.30;;;-3.10;65.20;;;;;;4122156;28;20034;-64
2022/01/21 01:06:54;;;;;;;5.63;1.42;;;-3.10;65.30;;;;;;4119303;28;20026;-64
2022/01/21 01:08:55;;;;;;;13.05;1.67;;;-3.10;65.40;;;;;;4123204;28;20120;-64
2022/01/21 01:19:52;;;;;;;9.90;1.35;;;-3.10;65.70;;;;;;4118491;28;20027;-64
2022/01/21 01:20:00;;;;;;;10.93;2.03;;;-3.10;65.70;;;;;;4120755;28;20398;-64
2022/01/21 01:22:01;;;;;;;12.05;1.10;;;-3.10;65.70;;;;;;4121750;28;20623;-63
2022/01/21 01:27:36;;;;;;;11.60;1.58;;;-3.10;65.60;;;;;;4120269;28;20029;-63
2022/01/21 01:28:44;;;;;;;10.50;1.50;;;-3.20;65.40;;;;;;4117185;28;20112;-64
2022/01/21 01:30:44;;;;;;;7.63;1.55;;;-3.20;65.30;;;;;;4116052;28;20058;-63
2022/01/21 01:32:46;;;;;;;7.38;0.95;;;-3.20;65.30;;;;;;4117360;28;20034;-63
2022/01/21 01:34:47;;;;;;;14.05;1.40;;;-3.20;65.30;;;;;;4125336;28;20026;-63
2022/01/21 01:36:47;;;;;;;14.32;1.85;;;-3.20;65.40;;;;;;4121960;28;20574;-64
2022/01/21 01:41:12;;;;;;;22.20;2.63;;;-3.30;65.40;;;;;;4124310;28;20494;-64
2022/01/21 01:50:07;;;;;;;18.80;1.50;;;-3.30;67.90;;;;;;4117734;28;20065;-62
2022/01/21 01:52:10;;;;;;;11.88;1.95;;;-3.30;68.60;;;;;;4121702;28;20030;-63
2022/01/21 01:54:12;;;;;;;10.05;1.55;;;-3.20;69.60;;;;;;4119922;28;20030;-63
2022/01/21 01:56:14;;;;;;;22.95;2.20;;;-3.20;70.20;;;;;;4115373;28;20742;-63
2022/01/21 01:58:14;;;;;;;19.90;2.45;;;-3.20;70.70;;;;;;4124221;28;20101;-63
2022/01/21 02:00:16;;;;;;;20.42;2.58;;;-3.10;71.10;;;;;;4116819;28;20042;-63
2022/01/21 02:02:18;;;;;;;22.85;2.47;;;-3.00;72.20;;;;;;4120471;28;20853;-64
2022/01/21 02:04:18;;;;;;;17.20;2.25;;;-2.90;72.90;;;;;;4113864;28;20031;-63
2022/01/21 02:06:20;;;;;;;21.92;2.13;;;-2.80;72.80;;;;;;4120635;28;20575;-64
2022/01/21 02:08:20;;;;;;;13.95;1.85;;;-2.70;72.70;;;;;;4120121;28;20520;-63
2022/01/21 02:10:21;;;;;;;15.25;1.98;;;-2.60;72.40;;;;;;4119439;28;20050;-63
2022/01/21 02:12:22;;;;;;;16.42;2.10;;;-2.50;72.00;;;;;;4117803;28;20073;-63
2022/01/21 02:14:28;;;;;;;11.13;1.23;;;-2.40;71.50;;;;;;4117069;28;20043;-63
2022/01/21 02:23:12;;;;;;;13.00;1.88;;;-1.90;69.60;;;;;;4120216;28;20105;-63
2022/01/21 02:25:17;;;;;;;14.70;1.52;;;-1.90;69.10;;;;;;4124234;28;20042;-64
2022/01/21 02:27:17;;;;;;;18.02;1.63;;;-1.80;68.70;;;;;;4124171;28;20103;-64
2022/01/21 02:29:27;;;;;;;13.35;1.58;;;-1.70;68.30;;;;;;4121287;28;20047;-64
2022/01/21 02:31:28;;;;;;;11.10;1.70;;;-1.70;68.10;;;;;;4122070;28;20486;-64
2022/01/21 02:33:29;;;;;;;11.85;1.70;;;-1.60;67.80;;;;;;4119151;28;20030;-64
2022/01/21 02:35:29;;;;;;;18.88;2.13;;;-1.60;67.60;;;;;;4119666;28;20596;-63
2022/01/21 02:37:30;;;;;;;16.00;1.88;;;-1.60;67.20;;;;;;4117978;28;20026;-63
2022/01/21 02:39:30;;;;;;;22.63;1.73;;;-1.60;67.10;;;;;;4122864;28;20062;-63
2022/01/21 02:41:31;;;;;;;11.82;1.77;;;-1.60;66.90;;;;;;4122735;28;20084;-64
2022/01/21 02:43:32;;;;;;;15.77;2.00;;;-1.50;67.00;;;;;;4116655;28;20029;-63
2022/01/21 02:45:33;;;;;;;14.05;2.15;;;-1.50;67.10;;;;;;4112846;28;20077;-63
2022/01/21 02:47:34;;;;;;;18.65;2.42;;;-1.50;67.20;;;;;;4116782;28;20121;-63
2022/01/21 02:49:34;;;;;;;19.20;1.65;;;-1.50;67.40;;;;;;4129537;22;20050;-69
2022/01/21 02:51:35;;;;;;;12.45;1.48;;;-1.50;67.60;;;;;;4103607;28;20042;-69
2022/01/21 02:55:46;;;;;;;17.75;1.63;;;-1.50;67.80;;;;;;4123149;28;20040;-69
2022/01/21 02:57:46;;;;;;;16.80;1.67;;;-1.40;68.00;;;;;;4123518;28;20106;-69
2022/01/21 02:59:49;;;;;;;19.58;2.20;;;-1.50;68.00;;;;;;4123200;28;20030;-69
2022/01/21 03:01:50;;;;;;;7.82;1.33;;;-1.50;67.90;;;;;;4105170;28;20042;-69
2022/01/21 03:03:50;;;;;;;9.57;1.75;;;-1.40;67.90;;;;;;4118918;28;20406;-68
2022/01/21 03:05:51;;;;;;;16.30;1.63;;;-1.40;67.80;;;;;;4120477;28;20114;-69
2022/01/21 03:07:51;;;;;;;14.30;1.88;;;-1.40;67.60;;;;;;4124323;28;20033;-68
2022/01/21 03:09:52;;;;;;;11.40;1.30;;;-1.40;67.40;;;;;;4122074;28;20042;-68
2022/01/21 03:11:53;;;;;;;7.97;1.45;;;-1.40;67.30;;;;;;4120644;28;20664;-69
2022/01/21 03:13:53;;;;;;;11.48;1.27;;;-1.40;67.10;;;;;;4124439;28;20040;-68
2022/01/21 03:15:54;;;;;;;10.98;1.63;;;-1.40;67.00;;;;;;4107590;28;20400;-67
2022/01/21 03:17:55;;;;;;;13.70;2.10;;;-1.30;66.90;;;;;;4118214;28;20031;-69
2022/01/21 03:19:55;;;;;;;13.23;2.00;;;-1.40;66.70;;;;;;4102961;28;20027;-69
2022/01/21 03:21:56;;;;;;;18.27;1.95;;;-1.40;66.60;;;;;;4090308;28;20027;-68
2022/01/21 03:23:57;;;;;;;7.88;1.98;;;-1.40;66.60;;;;;;4120943;28;20556;-70
2022/01/21 03:25:57;;;;;;;20.88;1.63;;;-1.40;66.70;;;;;;4107470;28;20058;-69
2022/01/21 03:27:58;;;;;;;6.88;1.35;;;-1.40;66.70;;;;;;4108334;28;20430;-68
2022/01/21 03:29:59;;;;;;;14.70;2.10;;;-1.40;66.70;;;;;;4122875;28;20022;-69
2022/01/21 03:31:59;;;;;;;15.68;2.10;;;-1.50;66.60;;;;;;4123563;28;20026;-69
2022/01/21 03:34:01;;;;;;;8.23;1.45;;;-1.50;66.60;;;;;;4118660;28;20038;-69
2022/01/21 03:36:02;;;;;;;11.85;1.77;;;-1.50;66.60;;;;;;4123488;28;20035;-69
2022/01/21 03:38:03;;;;;;;10.18;1.17;;;-1.60;66.60;;;;;;4128108;28;20655;-69
2022/01/21 03:40:04;;;;;;;14.98;2.00;;;-1.60;66.40;;;;;;4129286;28;20050;-69
2022/01/21 03:42:05;;;;;;;10.38;1.45;;;-1.60;66.40;;;;;;4110539;28;20030;-69
2022/01/21 03:44:05;;;;;;;12.10;1.40;;;-1.60;66.40;;;;;;4109374;28;20037;-69
2022/01/21 03:46:06;;;;;;;10.15;1.65;;;-1.60;66.30;;;;;;4126110;28;20038;-68
2022/01/21 03:48:07;;;;;;;9.65;1.40;;;-1.60;66.30;;;;;;4122868;28;20038;-69
2022/01/21 03:52:27;;;;;;;8.30;1.35;;;-1.60;66.20;;;;;;4127376;28;20034;-68
2022/01/21 03:54:28;;;;;;;10.18;1.58;;;-1.60;66.20;;;;;;4125322;28;20034;-68
2022/01/21 03:56:28;;;;;;;12.88;1.50;;;-1.60;66.00;;;;;;4125995;28;20023;-68
2022/01/21 03:58:29;;;;;;;16.65;1.98;;;-1.60;65.80;;;;;;4120819;28;20019;-68
2022/01/21 04:00:32;;;;;;;9.82;1.80;;;-1.60;65.60;;;;;;4122121;28;21699;-69
2022/01/21 04:02:32;;;;;;;11.13;1.73;;;-1.60;65.50;;;;;;4103769;28;20065;-68
2022/01/21 04:04:34;;;;;;;16.73;1.67;;;-1.60;65.40;;;;;;4123652;28;20457;-69
2022/01/21 04:06:34;;;;;;;10.75;1.60;;;-1.70;65.30;;;;;;4108785;28;20450;-69
2022/01/21 04:08:35;;;;;;;16.15;2.40;;;-1.70;65.40;;;;;;4104123;28;20114;-68
2022/01/21 04:10:38;;;;;;;7.85;1.15;;;-1.70;65.40;;;;;;4107244;28;20097;-68
2022/01/21 04:12:39;;;;;;;12.82;1.85;;;-1.70;65.50;;;;;;4105741;28;20031;-68
2022/01/21 04:14:41;;;;;;;9.98;1.95;;;-1.70;65.70;;;;;;4126314;28;20073;-69
2022/01/21 04:16:42;;;;;;;17.52;1.98;;;-1.70;65.60;;;;;;4124229;28;20108;-69
2022/01/21 04:18:42;;;;;;;9.27;1.15;;;-1.70;65.70;;;;;;4108994;28;20616;-69
2022/01/21 04:20:43;;;;;;;9.30;1.60;;;-1.70;65.80;;;;;;4125815;28;20026;-69
2022/01/21 04:22:44;;;;;;;7.07;1.33;;;-1.70;65.80;;;;;;4109029;28;20026;-69
2022/01/21 04:24:46;;;;;;;9.02;1.55;;;-1.70;65.80;;;;;;4123494;28;20035;-69
2022/01/21 04:26:46;;;;;;;8.88;1.20;;;-1.70;65.80;;;;;;4125899;28;20033;-69
2022/01/21 04:28:47;;;;;;;11.90;1.30;;;-1.70;65.80;;;;;;4109959;28;20481;-70
2022/01/21 04:30:47;;;;;;;11.00;1.30;;;-1.70;65.70;;;;;;4122053;28;20122;-69
2022/01/21 04:32:48;;;;;;;8.15;0.93;;;-1.70;65.50;;;;;;4124986;28;20401;-71
2022/01/21 04:34:49;;;;;;;11.63;1.25;;;-1.70;65.30;;;;;;4127458;28;20023;-70
2022/01/21 04:36:49;;;;;;;16.10;1.50;;;-1.70;65.20;;;;;;4124521;28;20485;-69
2022/01/21 04:38:53;;;;;;;9.00;1.70;;;-1.70;65.00;;;;;;4126901;28;20027;-70
2022/01/21 04:47:51;;;;;;;12.50;1.15;;;-1.60;64.20;;;;;;4121000;28;20040;-70
2022/01/21 04:49:51;;;;;;;10.95;1.40;;;-1.60;63.90;;;;;;4126266;28;20030;-70
2022/01/21 04:52:04;;;;;;;7.05;1.13;;;-1.60;63.90;;;;;;4104217;28;20399;-69
2022/01/21 04:54:05;;;;;;;15.40;1.55;;;-1.60;63.80;;;;;;4122070;28;20373;-70
2022/01/21 04:56:05;;;;;;;6.82;1.17;;;-1.60;63.70;;;;;;4123796;28;20043;-69
2022/01/21 04:58:06;;;;;;;10.25;1.05;;;-1.50;63.70;;;;;;4125176;28;20038;-69
2022/01/21 05:00:07;;;;;;;9.82;1.08;;;-1.50;63.60;;;;;;4117653;28;20038;-71
2022/01/21 05:02:08;;;;;;;9.20;0.85;;;-1.50;63.60;;;;;;4096314;28;20034;-71
2022/01/21 05:04:08;;;;;;;8.50;1.38;;;-1.50;63.50;;;;;;4099369;28;20603;-72
2022/01/21 05:06:09;;;;;;;8.00;1.13;;;-1.50;63.60;;;;;;4114084;28;20406;-71
2022/01/21 05:08:20;;;;;;;12.48;1.08;;;-1.50;63.50;;;;;;4118793;28;20077;-71
2022/01/21 05:10:24;;;;;;;8.80;1.38;;;-1.50;63.50;;;;;;4118517;28;20557;-71
2022/01/21 05:12:26;;;;;;;9.90;0.82;;;-1.60;63.50;;;;;;4117205;28;20038;-70
2022/01/21 05:14:44;;;;;;;8.23;1.02;;;-1.60;63.50;;;;;;4087521;28;20122;-70
2022/01/21 05:16:50;;;;;;;11.43;1.13;;;-1.60;63.60;;;;;;4114698;28;20561;-70
2022/01/21 05:18:51;;;;;;;8.38;1.10;;;-1.60;64.50;;;;;;4114483;28;20549;-70
2022/01/21 05:20:51;;;;;;;9.75;1.20;;;-1.70;63.90;;;;;;4112204;28;20034;-70
2022/01/21 05:22:52;;;;;;;8.57;1.05;;;-1.70;64.10;;;;;;4117528;28;20948;-70
2022/01/21 05:24:53;;;;;;;12.48;1.95;;;-1.70;64.10;;;;;;4115137;28;21462;-69
2022/01/21 05:26:55;;;;;;;12.55;1.77;;;-1.70;64.30;;;;;;4118393;28;20035;-69
2022/01/21 05:28:55;;;;;;;7.53;1.35;;;-1.80;64.30;;;;;;4087887;28;20098;-69
2022/01/21 05:30:56;;;;;;;15.65;1.60;;;-1.80;64.50;;;;;;4115615;28;20457;-70
2022/01/21 05:32:57;;;;;;;13.00;1.17;;;-1.80;64.60;;;;;;4121452;28;20039;-62
2022/01/21 05:34:57;;;;;;;11.45;0.90;;;-1.80;64.60;;;;;;4113877;28;20623;-71
2022/01/21 05:36:58;;;;;;;15.73;1.00;;;-1.90;64.60;;;;;;4114430;28;20114;-71
2022/01/21 05:38:59;;;;;;;6.70;1.15;;;-1.90;64.70;;;;;;4102514;28;20040;-71
2022/01/21 05:40:59;;;;;;;11.55;1.38;;;-1.90;64.60;;;;;;4119336;28;20022;-71
2022/01/21 05:43:00;;;;;;;10.18;1.33;;;-1.90;64.60;;;;;;4101840;28;20399;-70
2022/01/21 05:47:04;;;;;;;8.48;1.38;;;-1.90;64.40;;;;;;4102296;28;20092;-71
2022/01/21 05:49:05;;;;;;;9.38;0.80;;;-1.90;64.40;;;;;;4122793;28;20382;-71
2022/01/21 05:51:05;;;;;;;8.90;1.30;;;-2.00;64.40;;;;;;4102235;28;20042;-71
2022/01/21 05:53:09;;;;;;;11.50;1.50;;;-2.00;64.40;;;;;;4098246;28;20035;-71
2022/01/21 05:55:10;;;;;;;6.72;1.10;;;-2.10;64.50;;;;;;4106675;28;20109;-70
2022/01/21 05:57:13;;;;;;;9.75;1.00;;;-2.10;64.60;;;;;;4124430;28;20027;-71
2022/01/21 05:59:13;;;;;;;7.05;1.15;;;-2.10;64.80;;;;;;4126261;28;20026;-71
2022/01/21 06:01:14;;;;;;;8.75;1.73;;;-2.10;65.10;;;;;;4116695;28;21364;-71
2022/01/21 06:03:15;;;;;;;17.80;6.10;;;-2.20;65.30;;;;;;4115493;28;20045;-71
2022/01/21 06:05:15;;;;;;;16.25;2.92;;;-2.20;65.80;;;;;;4115280;28;20406;-70
2022/01/21 06:07:16;;;;;;;57.90;20.17;;;-2.20;66.20;;;;;;4123720;28;20038;-71
2022/01/21 06:09:17;;;;;;;17.08;4.50;;;-2.30;66.50;;;;;;4125631;28;20117;-71
2022/01/21 06:11:18;;;;;;;12.73;2.55;;;-2.30;66.90;;;;;;4102689;28;20023;-71
2022/01/21 06:13:19;;;;;;;7.55;1.77;;;-2.30;67.10;;;;;;4121652;28;20153;-71
2022/01/21 06:15:20;;;;;;;6.88;2.22;;;-2.30;67.20;;;;;;4123494;28;20042;-71
2022/01/21 06:17:20;;;;;;;17.25;6.05;;;-2.30;67.10;;;;;;4118508;28;20142;-71
2022/01/21 06:19:21;;;;;;;11.27;3.30;;;-2.40;67.10;;;;;;4116441;28;20023;-71
2022/01/21 06:21:22;;;;;;;5.25;1.65;;;-2.30;67.00;;;;;;4088426;29;20639;-71
2022/01/21 06:23:22;;;;;;;10.10;1.30;;;-2.40;66.90;;;;;;4120627;28;20081;-71
2022/01/21 06:25:23;;;;;;;10.55;1.40;;;-2.40;66.80;;;;;;4114511;28;20059;-71
2022/01/21 06:27:27;;;;;;;9.77;1.80;;;-2.40;66.70;;;;;;4120622;28;20026;-71
2022/01/21 06:29:27;;;;;;;9.13;3.65;;;-2.40;66.80;;;;;;4100204;28;20466;-71
2022/01/21 06:31:28;;;;;;;12.65;2.95;;;-2.40;66.80;;;;;;4105589;28;20050;-70
2022/01/21 06:33:29;;;;;;;11.50;1.60;;;-2.40;67.10;;;;;;4118237;28;20022;-71
2022/01/21 06:35:29;;;;;;;6.65;1.40;;;-2.50;67.10;;;;;;4100120;28;20301;-72
2022/01/21 06:37:30;;;;;;;7.03;1.35;;;-2.50;67.20;;;;;;4121459;28;20062;-71
2022/01/21 06:39:31;;;;;;;16.08;1.02;;;-2.50;67.20;;;;;;4115743;28;20622;-71
2022/01/21 06:41:32;;;;;;;5.57;0.93;;;-2.50;67.30;;;;;;4122289;28;20034;-70
2022/01/21 06:43:33;;;;;;;8.75;1.38;;;-2.50;67.40;;;;;;4121499;28;20030;-71
2022/01/21 06:45:33;;;;;;;8.45;1.45;;;-2.50;67.50;;;;;;4120865;28;20037;-71
2022/01/21 06:47:34;;;;;;;6.20;1.20;;;-2.60;67.50;;;;;;4107231;28;20164;-71
2022/01/21 06:49:34;;;;;;;15.38;1.40;;;-2.60;67.70;;;;;;4124796;28;20026;-71
2022/01/21 06:51:35;;;;;;;12.27;1.48;;;-2.60;67.80;;;;;;4108037;28;20053;-71
2022/01/21 06:53:35;;;;;;;9.90;1.10;;;-2.60;68.10;;;;;;4106053;28;20061;-70
2022/01/21 06:55:37;;;;;;;9.00;1.27;;;-2.60;68.10;;;;;;4119576;28;20046;-71
2022/01/21 06:57:39;;;;;;;7.93;1.40;;;-2.50;68.10;;;;;;4088573;28;22762;-71
2022/01/21 06:59:39;;;;;;;8.50;1.25;;;-2.50;68.10;;;;;;4105801;28;20030;-71
2022/01/21 07:01:40;;;;;;;13.38;1.60;;;-2.50;67.90;;;;;;4101815;28;20082;-71
2022/01/21 07:03:40;;;;;;;8.00;1.40;;;-2.50;67.80;;;;;;4117487;28;20034;-71
2022/01/21 07:05:46;;;;;;;4.20;1.27;;;-2.50;67.80;;;;;;4112874;28;20090;-70
2022/01/21 07:07:47;;;;;;;7.38;1.00;;;-2.50;67.80;;;;;;4124648;28;20030;-70
2022/01/21 07:09:47;;;;;;;4.75;0.85;;;-2.50;68.00;;;;;;4108818;28;20042;-71
2022/01/21 07:11:48;;;;;;;10.40;1.10;;;-2.40;68.00;;;;;;4128130;28;20114;-70
2022/01/21 07:13:48;;;;;;;6.50;1.10;;;-2.40;67.90;;;;;;4106246;28;20034;-70
2022/01/21 07:15:49;;;;;;;7.40;1.08;;;-2.40;67.80;;;;;;4107130;28;20023;-70
2022/01/21 07:17:52;;;;;;;9.30;1.23;;;-2.30;67.50;;;;;;4107523;28;20029;-71
2022/01/21 07:19:52;;;;;;;5.53;1.27;;;-2.30;67.40;;;;;;4091364;28;20523;-71
2022/01/21 07:21:53;;;;;;;9.23;1.15;;;-2.30;67.10;;;;;;4109004;28;20126;-70
2022/01/21 07:23:54;;;;;;;5.85;1.15;;;-2.20;67.00;;;;;;4089141;28;20066;-70
2022/01/21 07:25:54;;;;;;;17.08;1.48;;;-2.20;66.90;;;;;;4107164;28;20062;-70
2022/01/21 07:27:55;;;;;;;4.03;1.13;;;-2.20;66.70;;;;;;4104790;28;20546;-70
2022/01/21 07:29:55;;;;;;;7.43;1.05;;;-2.10;66.70;;;;;;4108688;28;20110;-71
2022/01/21 07:31:56;;;;;;;8.32;1.05;;;-2.10;66.60;;;;;;4125083;28;20173;-70
2022/01/21 07:33:58;;;;;;;8.27;0.88;;;-2.10;66.60;;;;;;4108134;28;20029;-71
2022/01/21 07:35:59;;;;;;;6.15;1.02;;;-2.00;66.60;;;;;;4122919;28;20061;-71
2022/01/21 07:37:59;;;;;;;6.88;1.30;;;-2.00;66.60;;;;;;4094225;28;20034;-71
2022/01/21 07:40:00;;;;;;;5.43;1.20;;;-2.00;66.60;;;;;;4105431;28;20127;-71
2022/01/21 07:42:00;;;;;;;6.57;1.10;;;-2.00;66.60;;;;;;4088134;28;20122;-71
2022/01/21 07:44:01;;;;;;;9.35;1.30;;;-2.00;66.60;;;;;;4123576;28;20435;-70
2022/01/21 07:46:02;;;;;;;6.22;1.17;;;-2.00;66.40;;;;;;4104275;28;20018;-71
2022/01/21 07:48:03;;;;;;;9.27;1.50;;;-1.90;66.40;;;;;;4106034;28;20131;-71
2022/01/21 07:50:04;;;;;;;10.77;1.80;;;-1.90;66.40;;;;;;4121851;28;20533;-71
2022/01/21 07:52:05;;;;;;;9.63;2.08;;;-1.90;66.40;;;;;;4124283;28;20470;-71
2022/01/21 07:54:06;;;;;;;9.43;1.95;;;-1.90;66.40;;;;;;4120905;28;20022;-70
2022/01/21 07:56:06;;;;;;;12.75;2.72;;;-1.90;66.50;;;;;;4124831;28;20486;-71
2022/01/21 07:58:07;;;;;;;4.65;1.33;;;-1.90;66.80;;;;;;4091204;28;20515;-71
2022/01/21 08:00:08;;;;;;;8.90;0.98;;;-1.90;67.00;;;;;;4106378;28;20038;-71
2022/01/21 08:02:09;;;;;;;13.80;1.33;;;-1.90;67.10;;;;;;4106952;28;20035;-71
2022/01/21 08:04:10;;;;;;;5.40;0.90;;;-1.80;67.20;;;;;;4109282;28;20030;-70
2022/01/21 08:06:10;;;;;;;5.60;1.15;;;-1.80;67.10;;;;;;4103095;28;20035;-71
2022/01/21 08:08:11;;;;;;;7.95;0.80;;;-1.80;67.10;;;;;;4108685;28;20035;-71
2022/01/21 08:10:11;;;;;;;8.43;1.20;;;-1.70;67.10;;;;;;4123853;28;20384;-71
2022/01/21 08:12:15;;;;;;;9.93;1.58;;;-1.70;66.90;;;;;;4108109;28;20027;-71
2022/01/21 08:14:15;;;;;;;9.80;0.95;;;-1.70;67.00;;;;;;4110236;28;20038;-71
2022/01/21 08:16:16;;;;;;;4.10;0.98;;;-1.60;67.20;;;;;;4122757;28;20367;-71
2022/01/21 08:18:17;;;;;;;8.68;0.90;;;-1.60;67.10;;;;;;4107235;28;20027;-71
2022/01/21 08:20:18;;;;;;;3.70;0.80;;;-1.50;67.00;;;;;;4088654;28;20027;-71
2022/01/21 08:22:20;;;;;;;4.95;0.80;;;-1.50;67.10;;;;;;4107325;28;20377;-70
2022/01/21 08:24:21;;;;;;;4.80;0.80;;;-1.50;67.10;;;;;;4124091;28;20126;-70
2022/01/21 08:26:24;;;;;;;6.60;1.15;;;-1.40;67.10;;;;;;4109571;28;20467;-70
2022/01/21 08:28:24;;;;;;;6.45;1.08;;;-1.40;67.10;;;;;;4125419;28;20045;-72
2022/01/21 08:30:25;;;;;;;5.18;0.93;;;-1.40;67.00;;;;;;4108910;28;20027;-71
2022/01/21 08:32:25;;;;;;;6.72;1.10;;;-1.30;67.10;;;;;;4110539;28;20427;-71
2022/01/21 08:34:26;;;;;;;5.40;1.00;;;-1.30;67.10;;;;;;4109199;28;20376;-71
2022/01/21 08:36:27;;;;;;;6.43;0.75;;;-1.20;67.10;;;;;;4126342;28;20088;-71
2022/01/21 08:38:27;;;;;;;5.35;1.10;;;-1.20;67.10;;;;;;4111528;28;20085;-71
2022/01/21 08:40:28;;;;;;;8.65;0.90;;;-1.20;67.10;;;;;;4122353;28;20072;-72
2022/01/21 08:42:28;;;;;;;7.43;1.02;;;-1.10;67.20;;;;;;4108048;28;20023;-71
2022/01/21 08:44:29;;;;;;;9.55;1.17;;;-1.00;67.30;;;;;;4121481;28;20033;-70
2022/01/21 08:46:29;;;;;;;5.55;1.00;;;-1.00;67.50;;;;;;4124493;28;20033;-71
2022/01/21 08:48:30;;;;;;;7.35;0.90;;;-1.00;67.50;;;;;;4110018;28;20082;-71
2022/01/21 08:50:31;;;;;;;10.27;0.85;;;-0.90;67.70;;;;;;4284058;23;20065;-81
2022/01/21 08:52:36;;;;;;;6.65;1.08;;;-0.90;67.70;;;;;;4116897;28;20519;-82
2022/01/21 08:54:36;;;;;;;7.72;1.05;;;-0.80;67.80;;;;;;4128479;28;20583;-82
2022/01/21 08:56:37;;;;;;;9.98;1.10;;;-0.80;67.80;;;;;;4109925;28;20055;-82
2022/01/21 08:58:38;;;;;;;5.65;0.80;;;-0.70;67.80;;;;;;4105671;28;20054;-82
2022/01/21 09:00:38;;;;;;;8.23;1.17;;;-0.70;67.70;;;;;;4112745;28;20027;-81
2022/01/21 09:02:39;;;;;;;6.93;1.45;;;-0.70;67.70;;;;;;4094942;29;20023;-81
2022/01/21 09:04:39;;;;;;;6.38;0.68;;;-0.60;67.80;;;;;;4106902;28;20054;-81
2022/01/21 09:06:40;;;;;;;6.82;1.02;;;-0.50;67.70;;;;;;4105220;28;20034;-81
2022/01/21 09:08:41;;;;;;;10.48;1.35;;;-0.50;67.60;;;;;;4108030;28;20041;-82
2022/01/21 09:10:42;;;;;;;11.13;1.20;;;-0.40;68.30;;;;;;4128279;28;20435;-81
2022/01/21 09:12:43;;;;;;;6.18;1.20;;;-0.40;67.30;;;;;;4104343;28;20027;-81
2022/01/21 09:14:43;;;;;;;7.05;1.33;;;-0.30;67.20;;;;;;4125712;28;20034;-82
2022/01/21 09:16:44;;;;;;;9.25;1.15;;;-0.20;67.20;;;;;;4128642;28;20045;-82
2022/01/21 09:18:54;;;;;;;9.75;1.00;;;-0.20;67.10;;;;;;4122890;28;20451;-81
2022/01/21 09:20:54;;;;;;;7.50;1.05;;;-0.10;67.10;;;;;;4112410;28;20031;-81
2022/01/21 09:22:55;;;;;;;4.55;0.98;;;-0.10;67.00;;;;;;4104441;28;20058;-81
2022/01/21 09:24:55;;;;;;;9.00;1.13;;;0.00;67.00;;;;;;4111440;28;20074;-81
2022/01/21 09:26:56;;;;;;;2.97;0.85;;;0.10;66.90;;;;;;4109612;28;20169;-81
2022/01/21 09:28:58;;;;;;;11.05;1.35;;;0.10;66.80;;;;;;4120219;28;20037;-81
2022/01/21 09:30:58;;;;;;;3.85;0.82;;;0.20;66.80;;;;;;4102544;28;20067;-81
2022/01/21 09:32:59;;;;;;;4.75;0.90;;;0.20;66.70;;;;;;4132619;28;20037;-81
2022/01/21 09:34:59;;;;;;;12.15;1.45;;;0.30;66.50;;;;;;4120854;28;20045;-82
2022/01/21 09:37:00;;;;;;;13.80;1.10;;;0.40;66.40;;;;;;4102887;28;20400;-82
2022/01/21 09:39:02;;;;;;;6.25;1.10;;;0.40;66.40;;;;;;4110072;28;20476;-81
2022/01/21 09:41:05;;;;;;;8.65;1.30;;;0.50;66.40;;;;;;4112753;28;20114;-81
2022/01/21 09:43:05;;;;;;;8.68;1.63;;;0.60;66.40;;;;;;4120940;28;20530;-82
2022/01/21 09:45:11;;;;;;;9.95;1.10;;;0.70;66.50;;;;;;4104892;28;20035;-82
2022/01/21 09:47:15;;;;;;;6.82;1.00;;;0.70;66.30;;;;;;4122634;28;20542;-81
2022/01/21 09:51:22;;;;;;;7.75;1.08;;;0.90;66.50;;;;;;4136415;28;20092;-81
2022/01/21 09:53:30;;;;;;;6.28;1.08;;;1.00;66.50;;;;;;4134405;28;20113;-82
2022/01/21 09:55:31;;;;;;;5.22;1.10;;;1.00;66.60;;;;;;4137983;28;20048;-82
2022/01/21 09:57:31;;;;;;;14.88;1.80;;;1.10;66.70;;;;;;4121360;28;20034;-83
2022/01/21 09:59:34;;;;;;;24.38;1.67;;;1.20;66.70;;;;;;4115367;28;20066;-82
2022/01/21 10:01:34;;;;;;;11.90;1.75;;;1.30;66.70;;;;;;4103532;28;20023;-81
2022/01/21 10:03:35;;;;;;;10.00;1.23;;;1.30;66.60;;;;;;4120241;28;20609;-81
2022/01/21 10:05:36;;;;;;;11.32;1.52;;;1.40;66.60;;;;;;4117056;28;20484;-81
2022/01/21 10:07:39;;;;;;;11.43;1.45;;;1.50;66.60;;;;;;4107843;28;20042;-82
2022/01/21 10:09:40;;;;;;;7.78;1.05;;;1.50;66.60;;;;;;4112098;28;20081;-82
2022/01/21 10:11:46;;;;;;;13.40;1.20;;;1.60;66.70;;;;;;4132244;28;20415;-82
2022/01/21 10:13:48;;;;;;;11.82;1.58;;;1.70;66.70;;;;;;4110135;28;20575;-82
2022/01/21 10:15:48;;;;;;;15.30;1.45;;;1.70;66.80;;;;;;4127586;28;20062;-82
2022/01/21 10:18:05;;;;;;;9.95;1.30;;;1.80;66.80;;;;;;4124517;28;20042;-82
2022/01/21 10:20:14;;;;;;;13.98;1.77;;;1.90;67.00;;;;;;4131760;28;20059;-82
2022/01/21 10:22:17;;;;;;;19.88;1.60;;;2.00;67.10;;;;;;4129649;28;20808;-82
2022/01/21 10:24:18;;;;;;;13.57;1.70;;;2.00;67.20;;;;;;4126092;28;20078;-82
2022/01/21 10:26:19;;;;;;;18.25;1.98;;;2.10;67.20;;;;;;4114424;28;20063;-82
2022/01/21 10:28:20;;;;;;;11.38;1.35;;;2.20;67.40;;;;;;4110297;28;20113;-82
2022/01/21 10:30:23;;;;;;;8.20;1.33;;;2.20;67.40;;;;;;4132434;28;20396;-82
2022/01/21 10:32:34;;;;;;;12.05;1.75;;;2.30;67.50;;;;;;4124744;28;20349;-82
2022/01/21 10:34:43;;;;;;;18.23;1.65;;;2.30;67.80;;;;;;4143377;28;20057;-82
2022/01/21 10:36:46;;;;;;;14.73;1.67;;;2.40;68.00;;;;;;4140559;28;20034;-82
2022/01/21 10:38:49;;;;;;;10.43;1.77;;;2.40;68.30;;;;;;4111537;28;20503;-83
2022/01/21 10:40:49;;;;;;;13.75;1.83;;;2.50;68.20;;;;;;4121151;28;20030;-82
2022/01/21 10:42:50;;;;;;;16.42;1.85;;;2.50;68.30;;;;;;4138926;28;20092;-82
2022/01/21 10:44:51;;;;;;;14.30;1.98;;;2.60;68.40;;;;;;4138630;28;20081;-82
2022/01/21 10:47:10;;;;;;;11.07;1.30;;;2.70;68.40;;;;;;4110180;28;20069;-82
2022/01/21 10:49:14;;;;;;;16.23;1.65;;;2.70;68.30;;;;;;4108622;28;20054;-81
2022/01/21 10:51:19;;;;;;;17.35;1.58;;;2.70;68.30;;;;;;4107041;28;20602;-82
2022/01/21 10:53:27;;;;;;;15.10;1.90;;;2.80;68.30;;;;;;4137061;28;20041;-82
2022/01/21 10:55:35;;;;;;;12.63;2.15;;;2.90;68.50;;;;;;4139619;28;20045;-82
2022/01/21 10:57:36;;;;;;;10.38;1.60;;;2.90;68.70;;;;;;4126738;28;20030;-82
2022/01/21 10:59:53;;;;;;;15.60;1.92;;;2.90;68.80;;;;;;4108998;28;20037;-82
2022/01/21 11:02:00;;;;;;;14.68;1.50;;;3.00;69.00;;;;;;4138403;28;20038;-81
2022/01/21 11:04:12;;;;;;;13.13;1.77;;;3.10;69.30;;;;;;4140939;28;20482;-81
2022/01/21 11:06:18;;;;;;;28.97;2.37;;;3.10;69.40;;;;;;4112749;28;20064;-82
2022/01/21 11:08:23;;;;;;;12.85;1.50;;;3.10;69.50;;;;;;4124881;28;20058;-82
2022/01/21 11:10:39;;;;;;;15.00;1.92;;;3.20;70.20;;;;;;4111373;28;20065;-82
2022/01/21 11:12:39;;;;;;;8.63;1.52;;;3.20;69.50;;;;;;4140901;28;20105;-82
2022/01/21 11:15:03;;;;;;;15.82;2.10;;;3.30;69.60;;;;;;4122446;28;20062;-82
2022/01/21 11:17:15;;;;;;;17.90;2.28;;;3.40;69.60;;;;;;4136241;28;20390;-82
2022/01/21 11:19:24;;;;;;;25.58;2.47;;;3.40;69.60;;;;;;4140845;28;20040;-82
2022/01/21 11:21:41;;;;;;;13.95;1.73;;;3.40;69.50;;;;;;4125067;28;20070;-81
2022/01/21 11:23:42;;;;;;;10.43;1.95;;;3.50;69.50;;;;;;4134409;28;20054;-83